Time;durP1;ratioP1;P1;durP2;ratioP2;P2;SDS_P1;SDS_P2;PMS_P1;PMS_P2;Temp;Humidity;BMP_temperature;BMP_pressure;BME280_temperature;BME280_humidity;BME280_pressure;Samples;Min_cycle;Max_cycle;Signal;HPM_P1;HPM_P2
2023/10/01 00:01:43;;;;;;;12.52;6.70;;;13.90;80.20;;;;;;4984601;28;20072;-63
2023/10/01 00:04:10;;;;;;;13.38;6.85;;;13.90;80.30;;;;;;4986660;28;20564;-62
2023/10/01 00:06:36;;;;;;;15.05;6.93;;;14.00;80.50;;;;;;4985608;28;20641;-62
2023/10/01 00:09:05;;;;;;;12.38;6.80;;;14.00;80.50;;;;;;4988025;28;21181;-62
2023/10/01 00:11:32;;;;;;;13.32;6.65;;;14.00;80.30;;;;;;4986823;28;20034;-62
2023/10/01 00:13:59;;;;;;;12.95;6.88;;;14.00;80.00;;;;;;4986531;28;20027;-61
2023/10/01 00:16:25;;;;;;;14.50;6.60;;;13.90;79.80;;;;;;4984514;28;20058;-62
2023/10/01 00:18:51;;;;;;;15.68;6.88;;;13.90;79.80;;;;;;4982538;28;20089;-63
2023/10/01 00:21:17;;;;;;;13.73;6.88;;;13.80;79.80;;;;;;4979092;28;20137;-62
2023/10/01 00:23:43;;;;;;;16.15;7.30;;;13.80;80.00;;;;;;4983069;28;20495;-62
2023/10/01 00:26:10;;;;;;;14.23;7.15;;;13.70;80.00;;;;;;4983434;28;20126;-62
2023/10/01 00:28:35;;;;;;;16.10;7.00;;;13.70;80.30;;;;;;4983520;28;20042;-62
2023/10/01 00:31:01;;;;;;;12.98;6.80;;;13.70;80.60;;;;;;4983534;28;20418;-62
2023/10/01 00:33:27;;;;;;;13.15;6.55;;;13.60;80.80;;;;;;4984512;28;20034;-62
2023/10/01 00:35:55;;;;;;;13.95;7.30;;;13.60;81.20;;;;;;4977438;28;20066;-62
2023/10/01 00:38:20;;;;;;;14.02;6.88;;;13.60;81.50;;;;;;4983703;28;20049;-61
2023/10/01 00:40:49;;;;;;;12.73;6.72;;;13.70;82.50;;;;;;4980552;28;20414;-63
2023/10/01 00:43:14;;;;;;;13.38;6.78;;;13.80;81.70;;;;;;4984118;28;20054;-62
2023/10/01 00:45:40;;;;;;;13.48;6.93;;;13.80;81.70;;;;;;4983312;28;20497;-62
2023/10/01 00:48:11;;;;;;;12.85;6.50;;;13.80;81.60;;;;;;4982127;28;20502;-62
2023/10/01 00:50:38;;;;;;;15.02;6.90;;;13.80;81.50;;;;;;4984676;28;20050;-62
2023/10/01 00:53:04;;;;;;;11.48;6.22;;;13.80;81.70;;;;;;4986538;28;20034;-62
2023/10/01 00:55:31;;;;;;;12.32;7.07;;;13.90;81.70;;;;;;4986372;28;20494;-62
2023/10/01 00:57:58;;;;;;;13.52;6.90;;;13.90;81.80;;;;;;4986645;28;20046;-62
2023/10/01 01:00:25;;;;;;;15.48;7.03;;;13.90;81.70;;;;;;4986215;28;20445;-61
2023/10/01 01:02:57;;;;;;;12.75;7.43;;;13.90;81.50;;;;;;4982983;28;20039;-61
2023/10/01 01:05:37;;;;;;;15.85;7.20;;;13.90;81.40;;;;;;4985832;28;20060;-62
2023/10/01 01:08:09;;;;;;;12.27;6.47;;;14.00;82.40;;;;;;4985990;28;20046;-62
2023/10/01 01:10:42;;;;;;;15.82;6.97;;;14.00;82.20;;;;;;4984412;28;20406;-62
2023/10/01 01:13:08;;;;;;;12.20;6.38;;;14.00;81.30;;;;;;4984118;28;20061;-62
2023/10/01 01:15:35;;;;;;;13.88;7.28;;;14.10;81.10;;;;;;4985872;28;20042;-61
2023/10/01 01:18:07;;;;;;;13.98;7.15;;;14.10;80.90;;;;;;4983684;28;20031;-62
2023/10/01 01:20:36;;;;;;;14.50;7.10;;;14.10;80.60;;;;;;4981540;28;20075;-63
2023/10/01 01:23:04;;;;;;;15.75;7.43;;;14.10;80.50;;;;;;4976278;28;20046;-62
2023/10/01 01:25:32;;;;;;;13.45;7.28;;;14.10;80.50;;;;;;4980457;28;20066;-61
2023/10/01 01:27:59;;;;;;;12.88;7.30;;;14.00;80.50;;;;;;4981784;28;20038;-62
2023/10/01 01:30:29;;;;;;;13.05;7.22;;;14.00;80.50;;;;;;4979056;28;20034;-60
2023/10/01 01:32:57;;;;;;;14.45;7.75;;;14.00;80.50;;;;;;4982364;28;20038;-61
2023/10/01 01:35:29;;;;;;;14.40;7.78;;;13.90;80.40;;;;;;4979820;28;20126;-62
2023/10/01 01:38:01;;;;;;;11.93;6.88;;;13.90;80.50;;;;;;4981156;28;20031;-62
2023/10/01 01:40:31;;;;;;;13.88;7.70;;;13.80;80.70;;;;;;4980391;28;20042;-63
2023/10/01 01:43:02;;;;;;;22.77;9.80;;;13.70;80.60;;;;;;4983078;28;20524;-62
2023/10/01 01:45:33;;;;;;;20.52;9.55;;;13.70;80.80;;;;;;4983236;28;20418;-63
2023/10/01 01:48:00;;;;;;;17.67;8.43;;;13.70;81.20;;;;;;4975929;28;20061;-62
2023/10/01 01:50:26;;;;;;;16.70;8.18;;;13.60;81.30;;;;;;4982436;28;20042;-62
2023/10/01 01:52:57;;;;;;;15.05;7.75;;;13.60;81.30;;;;;;4989700;28;20046;-62
2023/10/01 01:55:27;;;;;;;15.50;7.72;;;13.70;81.50;;;;;;4980316;28;20031;-62
2023/10/01 01:58:10;;;;;;;15.95;7.18;;;13.70;81.30;;;;;;4983695;28;20805;-62
2023/10/01 02:00:46;;;;;;;12.63;7.13;;;13.70;81.10;;;;;;4981385;28;20425;-62
2023/10/01 02:03:17;;;;;;;12.20;7.10;;;13.80;80.80;;;;;;4981706;28;20040;-61
2023/10/01 02:05:47;;;;;;;13.95;6.93;;;13.70;80.50;;;;;;4980575;28;20049;-62
2023/10/01 02:08:25;;;;;;;13.90;7.15;;;13.70;80.30;;;;;;4982693;28;20053;-62
2023/10/01 02:10:51;;;;;;;14.02;7.70;;;13.60;80.20;;;;;;4980880;28;20129;-62
2023/10/01 02:13:17;;;;;;;15.27;7.65;;;13.60;80.40;;;;;;4980679;28;20045;-60
2023/10/01 02:15:45;;;;;;;12.48;6.95;;;13.50;80.60;;;;;;4982626;28;20054;-62
2023/10/01 02:18:13;;;;;;;12.95;7.00;;;13.50;81.00;;;;;;4984850;28;20040;-62
2023/10/01 02:20:40;;;;;;;14.20;7.63;;;13.40;81.30;;;;;;4980933;28;20520;-62
2023/10/01 02:23:12;;;;;;;15.95;7.28;;;13.40;81.50;;;;;;4980203;28;20042;-62
2023/10/01 02:25:45;;;;;;;15.45;7.47;;;13.30;81.50;;;;;;4984324;28;20038;-62
2023/10/01 02:28:14;;;;;;;14.88;7.40;;;13.40;81.70;;;;;;4986007;28;20096;-62
2023/10/01 02:30:41;;;;;;;15.00;7.82;;;13.40;81.50;;;;;;4983229;28;20395;-62
2023/10/01 02:33:20;;;;;;;13.70;7.90;;;13.30;81.30;;;;;;4985124;28;20038;-62
2023/10/01 02:35:55;;;;;;;11.60;6.25;;;13.30;81.30;;;;;;4984364;28;20035;-62
2023/10/01 02:41:09;;;;;;;12.82;6.65;;;13.40;81.80;;;;;;4981783;28;19940;-63
2023/10/01 02:43:41;;;;;;;14.95;6.85;;;13.30;81.00;;;;;;4986195;28;20734;-63
2023/10/01 02:46:12;;;;;;;11.73;6.70;;;13.30;81.00;;;;;;4983178;28;20169;-61
2023/10/01 02:48:41;;;;;;;14.38;7.75;;;13.30;81.20;;;;;;4985099;28;20375;-62
2023/10/01 02:51:14;;;;;;;13.90;6.75;;;13.40;81.30;;;;;;4984324;28;20529;-62
2023/10/01 02:54:03;;;;;;;13.52;7.07;;;13.30;81.20;;;;;;4984515;28;20379;-62
2023/10/01 02:56:33;;;;;;;12.38;6.82;;;13.20;81.20;;;;;;4979442;28;20046;-62
2023/10/01 02:59:13;;;;;;;12.27;7.03;;;13.30;81.20;;;;;;4986426;28;20113;-62
2023/10/01 03:01:42;;;;;;;13.48;6.97;;;13.30;81.50;;;;;;4982942;28;20494;-62
2023/10/01 03:04:18;;;;;;;13.75;6.95;;;13.30;81.30;;;;;;4976992;28;20081;-62
2023/10/01 03:06:52;;;;;;;12.52;6.82;;;13.30;81.00;;;;;;4986059;28;20294;-62
2023/10/01 03:09:33;;;;;;;12.90;6.68;;;13.20;80.80;;;;;;4988276;28;20068;-61
2023/10/01 03:17:35;;;;;;;14.00;6.88;;;13.20;80.60;;;;;;4988071;28;20044;-62
2023/10/01 03:20:16;;;;;;;10.30;6.22;;;13.20;80.80;;;;;;4987878;28;20042;-62
2023/10/01 03:22:51;;;;;;;12.30;6.50;;;13.20;80.70;;;;;;4986596;28;20031;-62
2023/10/01 03:25:28;;;;;;;;;;;13.20;80.50;;;;;;4988239;28;20556;-62
2023/10/01 03:27:58;;;;;;;12.85;6.22;;;13.20;81.00;;;;;;4987728;28;20321;-62
2023/10/01 03:30:31;;;;;;;12.90;6.93;;;13.20;80.10;;;;;;4987774;28;20363;-62
2023/10/01 03:33:00;;;;;;;13.93;7.57;;;13.20;80.10;;;;;;4986968;28;20518;-62
2023/10/01 03:35:27;;;;;;;12.32;7.25;;;13.20;80.30;;;;;;4986398;28;20074;-62
2023/10/01 03:38:14;;;;;;;13.05;7.15;;;13.20;80.50;;;;;;4987640;28;20042;-62
2023/10/01 03:43:34;;;;;;;12.35;6.93;;;13.10;80.50;;;;;;4987073;28;20052;-61
2023/10/01 03:46:28;;;;;;;11.07;6.53;;;13.10;80.10;;;;;;4987825;28;20034;-62
2023/10/01 03:48:58;;;;;;;14.25;7.70;;;13.00;80.10;;;;;;4986391;28;20030;-62
2023/10/01 03:51:53;;;;;;;12.05;7.15;;;13.00;80.10;;;;;;4986207;28;20034;-62
2023/10/01 03:54:52;;;;;;;13.32;7.50;;;13.00;80.60;;;;;;4986939;28;20117;-62
2023/10/01 03:57:17;;;;;;;14.48;7.43;;;12.90;80.80;;;;;;4986957;28;20174;-62
2023/10/01 03:59:51;;;;;;;13.18;7.32;;;12.90;80.80;;;;;;4987060;28;20038;-60
2023/10/01 04:02:28;;;;;;;12.60;7.03;;;12.90;81.00;;;;;;4986326;28;20030;-62
2023/10/01 04:04:57;;;;;;;13.07;7.20;;;12.90;81.30;;;;;;4986698;28;20049;-62
2023/10/01 04:07:26;;;;;;;12.68;7.13;;;12.90;81.00;;;;;;4986529;28;20497;-62
2023/10/01 04:09:52;;;;;;;14.18;7.28;;;12.90;80.80;;;;;;4984627;28;20049;-61
2023/10/01 04:12:19;;;;;;;12.77;6.80;;;12.90;80.80;;;;;;4984813;28;20038;-61
2023/10/01 04:14:48;;;;;;;11.35;6.43;;;12.90;80.80;;;;;;4985966;28;20050;-62
2023/10/01 04:17:18;;;;;;;11.30;6.10;;;12.90;80.80;;;;;;4985523;28;20409;-63
2023/10/01 04:19:57;;;;;;;10.10;6.25;;;12.80;80.60;;;;;;4987077;28;20034;-62
2023/10/01 04:22:25;;;;;;;13.02;6.78;;;12.80;80.60;;;;;;4986434;28;20188;-62
2023/10/01 04:25:01;;;;;;;10.70;6.20;;;12.80;80.60;;;;;;4986160;28;20061;-62
2023/10/01 04:27:34;;;;;;;12.85;6.72;;;12.70;80.60;;;;;;4986657;28;20042;-62
2023/10/01 04:30:01;;;;;;;11.43;6.30;;;12.70;80.40;;;;;;4987145;28;20462;-61
2023/10/01 04:32:28;;;;;;;11.60;6.43;;;12.70;80.40;;;;;;4985765;28;20046;-62
2023/10/01 04:35:11;;;;;;;14.40;6.30;;;12.70;80.50;;;;;;4986841;28;20043;-61
2023/10/01 04:37:37;;;;;;;10.80;6.18;;;12.60;80.40;;;;;;4986049;28;20258;-61
2023/10/01 04:43:10;;;;;;;13.23;6.35;;;12.60;80.60;;;;;;4985459;28;20077;-62
2023/10/01 04:45:36;;;;;;;12.15;6.03;;;12.50;80.50;;;;;;4985863;28;20043;-62
2023/10/01 04:48:15;;;;;;;22.52;12.63;;;12.50;80.50;;;;;;4986151;28;20042;-60
2023/10/01 04:50:42;;;;;;;23.35;13.63;;;12.50;80.60;;;;;;4986121;28;20034;-61
2023/10/01 04:53:07;;;;;;;24.65;15.30;;;12.40;80.30;;;;;;4982987;28;20068;-62
2023/10/01 04:55:41;;;;;;;23.42;13.80;;;12.40;80.40;;;;;;4986720;28;20121;-62
2023/10/01 04:58:12;;;;;;;21.77;11.82;;;12.30;80.50;;;;;;4985917;28;20088;-61
2023/10/01 05:00:47;;;;;;;19.45;11.65;;;12.30;80.80;;;;;;4985121;28;20030;-62
2023/10/01 05:03:15;;;;;;;17.17;9.55;;;12.30;81.00;;;;;;4985462;28;20034;-62
2023/10/01 05:05:42;;;;;;;19.52;9.18;;;12.20;80.70;;;;;;4985785;28;20032;-62
2023/10/01 05:08:15;;;;;;;14.02;7.80;;;12.20;80.80;;;;;;4985648;28;20034;-62
2023/10/01 05:10:52;;;;;;;14.95;8.07;;;12.20;80.90;;;;;;4984853;28;20078;-62
2023/10/01 05:13:22;;;;;;;14.98;7.78;;;12.20;81.20;;;;;;4984577;28;20058;-62
2023/10/01 05:15:56;;;;;;;15.77;7.78;;;12.20;81.30;;;;;;4985865;28;20109;-61
2023/10/01 05:18:22;;;;;;;13.73;6.80;;;12.20;81.50;;;;;;4985959;28;20062;-62
2023/10/01 05:20:48;;;;;;;12.75;6.90;;;12.20;81.20;;;;;;4985362;28;20038;-62
2023/10/01 05:23:15;;;;;;;11.68;7.13;;;12.20;81.00;;;;;;4985159;28;20066;-61
2023/10/01 05:25:45;;;;;;;13.80;7.32;;;12.20;81.30;;;;;;4985717;28;20053;-62
2023/10/01 05:28:23;;;;;;;11.90;6.80;;;12.20;81.40;;;;;;4984912;28;20046;-60
2023/10/01 05:30:58;;;;;;;13.05;6.82;;;12.20;81.30;;;;;;4984926;28;20461;-62
2023/10/01 05:33:24;;;;;;;11.50;6.65;;;12.20;81.10;;;;;;4986541;28;20049;-62
2023/10/01 05:35:54;;;;;;;13.70;6.63;;;12.20;81.00;;;;;;4985662;28;20038;-61
2023/10/01 05:38:20;;;;;;;14.25;7.28;;;12.10;81.00;;;;;;4985663;28;20034;-62
2023/10/01 05:40:52;;;;;;;11.68;6.82;;;12.10;81.10;;;;;;4985184;28;20039;-62
2023/10/01 05:43:18;;;;;;;13.40;6.53;;;12.10;81.00;;;;;;4985465;28;20042;-61
2023/10/01 05:45:52;;;;;;;12.23;6.75;;;12.10;81.20;;;;;;4985153;28;20042;-62
2023/10/01 05:48:19;;;;;;;13.03;6.50;;;12.10;81.30;;;;;;4985763;28;20038;-62
2023/10/01 05:50:46;;;;;;;13.27;7.05;;;12.10;81.60;;;;;;4984797;28;20124;-62
2023/10/01 05:53:13;;;;;;;12.27;7.05;;;12.10;81.90;;;;;;4983846;28;20097;-62
2023/10/01 05:55:39;;;;;;;11.40;6.68;;;12.10;82.00;;;;;;4986122;28;20080;-62
2023/10/01 05:58:16;;;;;;;13.40;6.72;;;12.10;82.20;;;;;;4986260;28;20405;-62
2023/10/01 06:00:53;;;;;;;11.93;6.40;;;12.10;82.20;;;;;;4989151;28;20045;-62
2023/10/01 06:03:19;;;;;;;10.73;6.07;;;12.20;82.40;;;;;;4989288;28;20138;-62
2023/10/01 06:05:57;;;;;;;12.68;7.05;;;12.30;82.30;;;;;;4978740;28;20050;-62
2023/10/01 06:08:32;;;;;;;10.82;6.95;;;12.30;82.20;;;;;;4981870;28;20121;-63
2023/10/01 06:11:09;;;;;;;11.88;6.93;;;12.30;82.00;;;;;;4976806;28;20076;-62
2023/10/01 06:13:39;;;;;;;14.27;7.47;;;12.30;82.10;;;;;;4981665;28;20548;-62
2023/10/01 06:16:13;;;;;;;12.35;6.88;;;12.30;82.20;;;;;;4977140;28;20553;-62
2023/10/01 06:18:49;;;;;;;12.13;7.25;;;12.30;82.20;;;;;;4980566;28;20061;-62
2023/10/01 06:21:19;;;;;;;12.68;7.20;;;12.40;82.40;;;;;;4984706;28;20042;-62
2023/10/01 06:23:49;;;;;;;15.10;7.15;;;12.40;82.60;;;;;;4985628;28;20038;-62
2023/10/01 06:26:37;;;;;;;11.95;6.88;;;12.50;82.90;;;;;;4985108;28;20042;-63
2023/10/01 06:29:07;;;;;;;14.23;7.45;;;12.50;83.80;;;;;;4982274;28;20031;-62
2023/10/01 06:31:52;;;;;;;11.07;6.47;;;12.50;83.50;;;;;;4983813;28;20039;-62
2023/10/01 06:34:21;;;;;;;12.43;6.72;;;12.60;83.60;;;;;;4984021;28;20117;-62
2023/10/01 06:36:58;;;;;;;14.15;7.32;;;12.70;83.60;;;;;;4981428;28;20034;-62
2023/10/01 06:39:24;;;;;;;13.65;7.60;;;12.70;83.80;;;;;;4983989;28;20053;-62
2023/10/01 06:41:52;;;;;;;12.02;7.22;;;12.70;83.90;;;;;;4984380;28;20493;-62
2023/10/01 06:44:19;;;;;;;13.65;7.80;;;12.80;83.90;;;;;;4980650;28;20093;-63
2023/10/01 06:46:47;;;;;;;15.68;8.27;;;12.80;84.00;;;;;;4979758;28;20125;-63
2023/10/01 06:49:12;;;;;;;16.40;8.60;;;12.80;84.10;;;;;;4985016;28;20048;-62
2023/10/01 06:51:44;;;;;;;16.13;8.90;;;12.80;84.20;;;;;;4980747;28;20038;-63
2023/10/01 06:54:11;;;;;;;16.45;8.73;;;12.90;84.40;;;;;;4980969;28;22105;-62
2023/10/01 06:56:43;;;;;;;15.50;8.48;;;12.90;84.60;;;;;;4982375;28;20038;-62
2023/10/01 07:01:56;;;;;;;13.82;7.90;;;13.00;85.00;;;;;;4981392;28;20418;-63
2023/10/01 07:04:23;;;;;;;16.35;8.45;;;13.10;85.20;;;;;;4987099;28;20030;-62
2023/10/01 07:06:53;;;;;;;16.23;9.15;;;13.10;85.10;;;;;;4984969;28;20065;-62
2023/10/01 07:09:38;;;;;;;13.70;8.15;;;13.30;85.30;;;;;;4981373;28;20494;-62
2023/10/01 07:12:03;;;;;;;17.63;8.70;;;13.20;85.30;;;;;;4984565;28;20070;-62
2023/10/01 07:14:38;;;;;;;14.80;8.32;;;13.30;85.30;;;;;;4982907;28;20062;-62
2023/10/01 07:17:25;;;;;;;15.40;7.93;;;13.30;85.30;;;;;;4986388;28;20096;-62
2023/10/01 07:20:02;;;;;;;15.15;8.13;;;13.40;85.20;;;;;;4982668;28;20062;-62
2023/10/01 07:22:32;;;;;;;16.90;8.60;;;13.50;85.30;;;;;;4986032;28;20173;-62
2023/10/01 07:25:03;;;;;;;16.80;8.77;;;13.50;85.40;;;;;;4975851;28;20042;-62
2023/10/01 07:27:28;;;;;;;15.10;8.73;;;13.60;85.60;;;;;;4978068;28;20042;-62
2023/10/01 07:29:55;;;;;;;21.38;9.27;;;13.60;85.50;;;;;;4975283;28;20037;-62
2023/10/01 07:32:23;;;;;;;14.52;9.25;;;13.70;85.70;;;;;;4980342;28;20039;-62
2023/10/01 07:34:55;;;;;;;16.13;9.23;;;13.70;85.90;;;;;;4982024;28;20049;-63
2023/10/01 07:37:25;;;;;;;15.98;9.10;;;13.70;86.10;;;;;;4980800;28;20117;-63
2023/10/01 07:39:55;;;;;;;18.40;9.80;;;13.80;86.20;;;;;;4981799;28;20053;-63
2023/10/01 07:42:25;;;;;;;16.80;9.38;;;13.80;86.40;;;;;;4985180;28;20038;-62
2023/10/01 07:44:52;;;;;;;20.80;9.63;;;13.90;86.30;;;;;;4984233;28;20038;-62
2023/10/01 07:47:34;;;;;;;18.98;9.52;;;13.90;86.20;;;;;;4983762;28;20157;-62
2023/10/01 07:50:12;;;;;;;15.18;8.80;;;14.00;86.20;;;;;;4980807;28;20053;-62
2023/10/01 07:52:41;;;;;;;18.52;10.20;;;14.00;86.10;;;;;;4979064;28;20031;-62
2023/10/01 07:55:35;;;;;;;19.40;10.18;;;14.10;86.30;;;;;;4981468;28;20030;-62
2023/10/01 07:58:22;;;;;;;18.05;10.13;;;14.10;86.60;;;;;;4981936;28;20409;-62
2023/10/01 08:00:58;;;;;;;19.98;10.30;;;14.20;86.10;;;;;;4982572;28;20069;-62
2023/10/01 08:05:51;;;;;;;21.42;10.80;;;14.30;87.00;;;;;;4985255;28;20093;-62
2023/10/01 08:08:35;;;;;;;20.08;11.25;;;14.40;86.20;;;;;;4981289;28;20042;-62
2023/10/01 08:11:55;;;;;;;20.38;11.35;;;14.50;86.20;;;;;;4979549;28;20034;-62
2023/10/01 08:13:55;;;;;;;19.73;11.18;;;14.60;86.40;;;;;;4985588;28;20085;-63
2023/10/01 08:16:23;;;;;;;20.77;11.55;;;14.60;86.20;;;;;;4981236;28;20042;-62
2023/10/01 08:18:51;;;;;;;20.88;11.20;;;14.70;86.60;;;;;;4981197;28;20035;-61
2023/10/01 08:21:17;;;;;;;23.52;12.07;;;14.80;86.50;;;;;;4983088;28;20412;-62
2023/10/01 08:23:48;;;;;;;17.67;10.30;;;15.00;86.50;;;;;;4979175;28;20379;-62
2023/10/01 08:28:59;;;;;;;22.17;11.77;;;15.10;86.40;;;;;;4985098;28;20092;-62
2023/10/01 08:34:22;;;;;;;;;;;15.20;86.10;;;;;;4980869;28;20475;-62
2023/10/01 08:36:58;;;;;;;18.40;10.07;;;15.40;86.20;;;;;;4983863;28;19921;-63
2023/10/01 08:39:34;;;;;;;19.50;10.07;;;15.50;85.60;;;;;;4985068;28;20039;-62
2023/10/01 08:42:09;;;;;;;16.65;9.88;;;15.60;85.60;;;;;;4985116;28;20030;-62
2023/10/01 08:44:50;;;;;;;16.33;9.95;;;15.70;85.90;;;;;;4977866;28;20035;-62
2023/10/01 08:47:36;;;;;;;19.48;10.32;;;15.80;86.10;;;;;;4980459;28;20077;-62
2023/10/01 08:50:48;;;;;;;;;;;15.90;85.70;;;;;;4988597;28;20457;-62
2023/10/01 08:52:56;;;;;;;18.52;9.52;;;16.10;85.90;;;;;;4980519;28;20385;-62
2023/10/01 08:55:23;;;;;;;18.60;10.20;;;16.20;85.30;;;;;;4985125;28;20129;-62
2023/10/01 08:57:55;;;;;;;20.10;10.35;;;16.30;85.30;;;;;;4985951;28;20044;-62
2023/10/01 09:00:24;;;;;;;20.52;10.73;;;16.50;85.30;;;;;;4985761;28;20034;-62
2023/10/01 09:03:10;;;;;;;21.52;10.52;;;16.60;85.00;;;;;;4986995;28;20034;-61
2023/10/01 09:05:36;;;;;;;20.02;10.43;;;16.70;85.00;;;;;;4986569;28;20057;-62
2023/10/01 09:08:26;;;;;;;19.35;10.23;;;16.80;84.70;;;;;;4986634;28;20050;-62
2023/10/01 09:10:53;;;;;;;19.73;10.55;;;17.00;84.50;;;;;;4986164;28;20046;-61
2023/10/01 09:13:23;;;;;;;21.10;9.88;;;17.10;84.00;;;;;;4986771;28;20041;-62
2023/10/01 09:15:55;;;;;;;21.38;10.23;;;17.20;84.00;;;;;;4987774;28;20039;-61
2023/10/01 09:18:26;;;;;;;18.88;10.05;;;17.30;83.80;;;;;;4987596;28;20034;-61
2023/10/01 09:21:08;;;;;;;22.30;10.73;;;17.40;83.40;;;;;;4987489;28;20105;-61
2023/10/01 09:24:10;;;;;;;16.55;9.35;;;17.60;83.20;;;;;;4987765;28;20057;-62
2023/10/01 09:26:39;;;;;;;19.58;9.68;;;17.70;82.80;;;;;;4986856;28;20041;-60
2023/10/01 09:29:25;;;;;;;18.90;9.70;;;17.80;82.90;;;;;;4987136;28;20421;-62
2023/10/01 09:31:58;;;;;;;20.73;9.15;;;17.90;82.50;;;;;;4985284;28;20483;-62
2023/10/01 09:34:35;;;;;;;17.70;8.90;;;18.00;81.90;;;;;;4985762;28;20038;-62
2023/10/01 09:37:11;;;;;;;19.50;9.65;;;18.10;81.90;;;;;;4986539;28;20035;-61
2023/10/01 09:39:41;;;;;;;22.13;9.77;;;18.20;81.80;;;;;;4987014;28;20034;-62
2023/10/01 09:42:22;;;;;;;20.63;10.13;;;18.20;81.50;;;;;;4986585;28;20030;-62
2023/10/01 09:44:52;;;;;;;19.17;9.43;;;18.40;81.50;;;;;;4986016;28;20041;-61
2023/10/01 09:47:23;;;;;;;18.30;9.40;;;18.50;80.80;;;;;;4986758;28;20054;-62
2023/10/01 09:49:52;;;;;;;17.98;8.85;;;18.60;80.70;;;;;;4986089;28;20061;-62
2023/10/01 09:52:48;;;;;;;19.35;8.95;;;18.70;80.00;;;;;;4985313;28;20046;-62
2023/10/01 09:55:26;;;;;;;19.33;9.45;;;18.80;79.80;;;;;;4984682;28;20053;-62
2023/10/01 09:57:54;;;;;;;17.13;8.88;;;18.90;80.20;;;;;;4986000;28;20042;-62
2023/10/01 10:00:39;;;;;;;20.65;9.15;;;19.00;78.60;;;;;;4986258;28;20034;-61
2023/10/01 10:03:11;;;;;;;17.42;8.38;;;19.00;78.40;;;;;;4986638;28;20164;-62
2023/10/01 10:05:40;;;;;;;17.23;8.18;;;19.10;78.60;;;;;;4986491;28;20450;-62
2023/10/01 10:08:15;;;;;;;17.75;8.00;;;19.20;78.50;;;;;;4986558;28;20049;-63
2023/10/01 10:10:49;;;;;;;18.38;8.68;;;19.30;78.40;;;;;;4984773;28;20331;-62
2023/10/01 10:13:36;;;;;;;18.50;8.50;;;19.40;77.50;;;;;;4986153;28;20097;-62
2023/10/01 10:19:08;;;;;;;17.33;7.68;;;19.60;76.80;;;;;;4986638;28;20166;-61
2023/10/01 10:24:48;;;;;;;20.05;7.68;;;19.70;75.50;;;;;;4985868;28;20042;-62
2023/10/01 10:27:34;;;;;;;17.65;7.40;;;19.70;75.30;;;;;;4985783;28;20073;-62
2023/10/01 10:30:05;;;;;;;16.98;7.47;;;19.80;76.10;;;;;;4987074;28;20118;-62
2023/10/01 10:32:44;;;;;;;15.45;6.95;;;19.90;75.70;;;;;;4985301;28;20037;-62
2023/10/01 10:35:16;;;;;;;14.60;7.38;;;20.00;75.00;;;;;;4985826;28;20042;-63
2023/10/01 10:37:48;;;;;;;17.45;7.55;;;20.00;74.40;;;;;;4986149;28;20069;-63
2023/10/01 10:42:58;;;;;;;16.77;7.95;;;20.20;74.70;;;;;;4981223;28;20038;-62
2023/10/01 10:45:31;;;;;;;15.43;7.03;;;20.20;74.50;;;;;;4988672;28;20105;-62
2023/10/01 10:48:04;;;;;;;15.88;7.43;;;20.30;74.90;;;;;;4990157;28;20053;-63
2023/10/01 10:50:50;;;;;;;15.25;7.28;;;20.40;74.30;;;;;;4990108;28;20038;-63
2023/10/01 10:53:24;;;;;;;14.23;6.68;;;20.50;74.30;;;;;;4988986;28;20037;-62
2023/10/01 10:56:10;;;;;;;15.55;6.80;;;20.60;74.40;;;;;;4989395;28;20304;-63
2023/10/01 10:58:39;;;;;;;15.57;7.38;;;20.70;73.60;;;;;;4988674;28;20129;-63
2023/10/01 11:01:21;;;;;;;16.45;6.82;;;20.80;74.00;;;;;;4990201;28;20033;-62
2023/10/01 11:03:58;;;;;;;15.50;6.80;;;20.90;73.60;;;;;;4988882;28;20453;-62
2023/10/01 11:06:29;;;;;;;13.95;6.88;;;21.00;73.00;;;;;;4987017;28;20640;-62
2023/10/01 11:08:56;;;;;;;15.70;6.93;;;21.10;73.20;;;;;;4983908;28;20038;-63
2023/10/01 11:11:28;;;;;;;12.55;6.65;;;21.30;73.20;;;;;;4985587;28;20041;-62
2023/10/01 11:14:00;;;;;;;13.57;7.18;;;21.40;72.90;;;;;;4981602;28;20097;-63
2023/10/01 11:16:33;;;;;;;14.00;6.82;;;21.50;72.30;;;;;;4982472;28;20054;-62
2023/10/01 11:19:12;;;;;;;11.95;6.07;;;21.60;71.50;;;;;;4986388;28;20493;-62
2023/10/01 11:21:58;;;;;;;12.75;6.38;;;21.70;71.60;;;;;;4984096;28;20034;-62
2023/10/01 11:24:34;;;;;;;15.18;6.70;;;21.80;70.80;;;;;;4988117;28;20046;-61
2023/10/01 11:27:25;;;;;;;13.52;6.40;;;21.80;70.00;;;;;;4988864;28;20042;-62
2023/10/01 11:30:19;;;;;;;12.32;6.25;;;22.00;70.70;;;;;;4988118;28;20071;-63
2023/10/01 11:35:32;;;;;;;12.40;6.25;;;22.00;70.60;;;;;;4987032;28;20034;-63
2023/10/01 11:38:19;;;;;;;11.75;6.25;;;22.10;70.40;;;;;;4987291;28;20539;-63
2023/10/01 11:43:59;;;;;;;14.90;6.35;;;22.30;69.90;;;;;;4989232;28;20049;-62
2023/10/01 11:46:29;;;;;;;14.52;6.20;;;22.40;67.40;;;;;;4986732;28;20038;-63
2023/10/01 11:49:04;;;;;;;12.65;6.53;;;22.50;68.50;;;;;;4987173;28;20077;-62
2023/10/01 11:51:45;;;;;;;12.48;5.90;;;22.50;68.60;;;;;;4986494;28;20045;-62
2023/10/01 11:54:12;;;;;;;13.18;6.45;;;22.60;68.20;;;;;;4985457;28;20429;-61
2023/10/01 11:56:43;;;;;;;14.25;6.80;;;22.70;67.70;;;;;;4984728;28;20502;-62
2023/10/01 11:59:17;;;;;;;13.40;5.95;;;22.70;66.90;;;;;;4987382;28;20042;-62
2023/10/01 12:01:49;;;;;;;13.68;6.22;;;22.70;66.70;;;;;;4985763;28;20347;-63
2023/10/01 12:07:15;;;;;;;12.00;5.85;;;22.80;65.90;;;;;;4985695;28;20054;-61
2023/10/01 12:09:48;;;;;;;13.52;6.38;;;22.90;66.20;;;;;;4985742;28;20525;-63
2023/10/01 12:12:18;;;;;;;11.75;6.57;;;23.00;66.20;;;;;;4986517;28;21413;-62
2023/10/01 12:14:53;;;;;;;11.95;6.18;;;23.00;66.00;;;;;;4986921;28;20059;-62
2023/10/01 12:17:23;;;;;;;13.23;6.10;;;23.00;65.50;;;;;;4985162;28;20495;-62
2023/10/01 12:20:00;;;;;;;13.07;5.95;;;23.10;65.50;;;;;;4985601;28;20035;-63
2023/10/01 12:22:29;;;;;;;12.57;6.28;;;23.10;65.30;;;;;;4986226;28;20038;-63
2023/10/01 12:24:59;;;;;;;13.23;6.03;;;23.10;64.70;;;;;;4986007;28;20046;-63
2023/10/01 12:27:41;;;;;;;11.73;5.75;;;23.10;64.40;;;;;;4986361;28;20049;-63
2023/10/01 12:30:27;;;;;;;14.85;5.88;;;23.20;65.40;;;;;;4987481;28;20126;-63
2023/10/01 12:33:03;;;;;;;11.75;6.30;;;23.20;64.50;;;;;;4986147;28;20341;-62
2023/10/01 12:35:32;;;;;;;12.25;5.90;;;23.20;64.60;;;;;;4985651;28;20126;-62
2023/10/01 12:40:52;;;;;;;11.38;5.63;;;23.30;64.10;;;;;;4985727;28;20042;-63
2023/10/01 12:43:37;;;;;;;12.55;5.72;;;23.30;63.90;;;;;;4985683;28;20058;-62
2023/10/01 12:46:10;;;;;;;11.85;5.50;;;23.40;62.90;;;;;;4987064;28;20074;-62
2023/10/01 12:48:57;;;;;;;11.43;5.72;;;23.40;62.70;;;;;;4983232;28;20069;-63
2023/10/01 12:51:32;;;;;;;12.43;5.88;;;23.40;62.60;;;;;;4985524;28;20034;-61
2023/10/01 12:53:59;;;;;;;13.18;6.07;;;23.40;62.90;;;;;;4984764;28;20560;-61
2023/10/01 12:56:44;;;;;;;13.73;6.65;;;23.50;62.70;;;;;;4985847;28;20045;-62
2023/10/01 12:59:18;;;;;;;14.70;5.93;;;23.40;62.00;;;;;;4986124;28;20030;-63
2023/10/01 13:01:51;;;;;;;10.35;5.47;;;23.50;62.30;;;;;;4984967;28;20120;-63
2023/10/01 13:04:25;;;;;;;11.52;5.93;;;23.50;62.50;;;;;;4984084;28;20062;-60
2023/10/01 13:06:53;;;;;;;12.00;5.67;;;23.50;62.60;;;;;;4985447;28;20093;-63
2023/10/01 13:12:14;;;;;;;11.65;5.75;;;23.60;62.70;;;;;;4987546;28;20524;-63
2023/10/01 13:14:41;;;;;;;11.73;5.63;;;23.60;62.10;;;;;;4985063;28;20035;-62
2023/10/01 13:17:19;;;;;;;9.43;5.28;;;23.60;61.40;;;;;;4986600;28;20031;-63
2023/10/01 13:20:00;;;;;;;11.30;5.88;;;23.70;61.20;;;;;;4984114;28;20169;-63
2023/10/01 13:22:29;;;;;;;11.20;5.80;;;23.70;61.20;;;;;;4983763;28;20049;-63
2023/10/01 13:24:55;;;;;;;12.07;5.63;;;23.70;61.10;;;;;;4985933;28;20030;-63
2023/10/01 13:27:21;;;;;;;12.68;6.45;;;23.70;60.40;;;;;;4981669;28;20415;-62
2023/10/01 13:30:14;;;;;;;10.70;5.70;;;23.80;60.00;;;;;;4980535;28;20062;-63
2023/10/01 13:32:36;;;;;;;14.35;5.85;;;23.80;59.80;;;;;;4980743;28;20122;-62
2023/10/01 13:35:31;;;;;;;11.93;6.00;;;23.80;60.10;;;;;;4986650;28;20114;-63
2023/10/01 13:37:48;;;;;;;10.30;5.38;;;23.80;59.80;;;;;;4988512;28;20045;-63
2023/10/01 13:40:29;;;;;;;11.93;5.75;;;23.80;59.90;;;;;;4987991;28;20042;-63
2023/10/01 14:10:22;;;;;;;10.23;5.40;;;24.10;58.40;;;;;;4987331;28;20465;-62
2023/10/01 14:13:00;;;;;;;10.00;5.15;;;24.10;58.50;;;;;;4982384;28;20164;-63
2023/10/01 14:15:26;;;;;;;10.65;5.32;;;24.10;58.20;;;;;;4984015;28;20031;-63
2023/10/01 14:17:58;;;;;;;10.18;5.35;;;24.10;58.10;;;;;;4985591;28;20084;-62
2023/10/01 14:23:30;;;;;;;10.07;4.75;;;24.10;58.50;;;;;;4989332;28;20050;-61